createdAt,value
2018-08-04T00:00:13.257Z,1.20
2018-08-04T00:00:46.307Z,1.02
2018-08-04T00:01:19.367Z,0.93
2018-08-04T00:01:52.426Z,1.00
2018-08-04T00:02:25.453Z,1.25
2018-08-04T00:02:58.453Z,1.20
2018-08-04T00:03:31.517Z,1.20
2018-08-04T00:04:04.555Z,1.07
2018-08-04T00:04:37.569Z,1.10
2018-08-04T00:05:10.769Z,1.12
2018-08-04T00:05:43.833Z,1.10
2018-08-04T00:06:16.955Z,1.20
2018-08-04T00:06:49.998Z,1.10
2018-08-04T00:07:23.035Z,1.20
2018-08-04T00:07:56.103Z,0.90
2018-08-04T00:08:29.154Z,0.90
2018-08-04T00:09:02.883Z,1.10
2018-08-04T00:09:35.921Z,1.07
2018-08-04T00:10:17.311Z,1.07
2018-08-04T00:10:50.445Z,1.10
2018-08-04T00:11:23.553Z,1.10
2018-08-04T00:11:56.624Z,1.12
2018-08-04T00:12:29.709Z,1.20
2018-08-04T00:13:02.791Z,0.90
2018-08-04T00:13:35.875Z,0.90
2018-08-04T00:14:09.181Z,1.10
2018-08-04T00:14:42.229Z,1.12
2018-08-04T00:15:15.441Z,1.02
2018-08-04T00:15:48.471Z,0.98
2018-08-04T00:16:21.559Z,1.20
2018-08-04T00:16:54.655Z,1.12
2018-08-04T00:17:27.985Z,1.17
2018-08-04T00:18:01.019Z,1.10
2018-08-04T00:18:34.059Z,1.20
2018-08-04T00:19:07.485Z,1.20
2018-08-04T00:19:40.518Z,1.00
2018-08-04T00:20:13.653Z,1.05
2018-08-04T00:20:46.734Z,1.00
2018-08-04T00:21:19.777Z,1.10
2018-08-04T00:21:52.889Z,1.00
2018-08-04T00:22:25.911Z,1.10
2018-08-04T00:22:58.940Z,1.10
2018-08-04T00:23:31.975Z,0.98
2018-08-04T00:24:05.059Z,1.10
2018-08-04T00:24:38.103Z,1.20
2018-08-04T00:25:11.237Z,1.07
2018-08-04T00:25:44.279Z,1.10
2018-08-04T00:26:17.296Z,1.10
2018-08-04T00:26:50.349Z,1.10
2018-08-04T00:27:23.427Z,1.00
2018-08-04T00:27:56.449Z,1.00
2018-08-04T00:28:29.458Z,1.07
2018-08-04T00:29:02.947Z,1.15
2018-08-04T00:29:36.017Z,1.10
2018-08-04T00:30:11.271Z,1.07
2018-08-04T00:30:44.648Z,1.00
2018-08-04T00:31:17.676Z,1.00
2018-08-04T00:31:50.784Z,1.10
2018-08-04T00:32:23.849Z,1.00
2018-08-04T00:32:56.879Z,1.05
2018-08-04T00:33:29.913Z,1.00
2018-08-04T00:34:02.955Z,1.00
2018-08-04T00:34:35.995Z,1.17
2018-08-04T00:35:09.824Z,1.10
2018-08-04T00:35:42.880Z,1.20
2018-08-04T00:36:15.936Z,1.10
2018-08-04T00:36:48.989Z,1.20
2018-08-04T00:37:22.068Z,1.10
2018-08-04T00:37:55.093Z,1.10
2018-08-04T00:38:28.103Z,1.20
2018-08-04T00:39:01.123Z,1.10
2018-08-04T00:39:34.127Z,1.20
2018-08-04T00:40:09.649Z,1.30
2018-08-04T00:40:42.655Z,1.10
2018-08-04T00:41:15.696Z,1.10
2018-08-04T00:41:48.731Z,1.12
2018-08-04T00:42:21.831Z,1.20
2018-08-04T00:42:54.842Z,1.30
2018-08-04T00:43:27.988Z,1.17
2018-08-04T00:44:01.047Z,1.30
2018-08-04T00:44:34.065Z,1.00
2018-08-04T00:45:07.364Z,1.00
2018-08-04T00:45:40.419Z,1.10
2018-08-04T00:46:13.490Z,1.10
2018-08-04T00:46:46.547Z,1.10
2018-08-04T00:47:19.663Z,1.07
2018-08-04T00:47:52.691Z,1.10
2018-08-04T00:48:25.741Z,1.17
2018-08-04T00:48:58.785Z,1.10
2018-08-04T00:49:31.829Z,1.20
2018-08-04T00:50:06.803Z,1.20
2018-08-04T00:50:39.839Z,1.20
2018-08-04T00:51:12.919Z,1.12
2018-08-04T00:51:45.967Z,1.20
2018-08-04T00:52:19.041Z,1.27
2018-08-04T00:52:52.364Z,1.27
2018-08-04T00:53:25.405Z,1.10
2018-08-04T00:53:58.479Z,1.10
2018-08-04T00:54:31.517Z,1.10
2018-08-04T00:55:05.357Z,1.15
2018-08-04T00:55:38.389Z,1.02
2018-08-04T00:56:11.419Z,1.17
2018-08-04T00:56:44.489Z,1.12
2018-08-04T00:57:17.535Z,1.10
2018-08-04T00:57:50.583Z,1.20
2018-08-04T00:58:23.619Z,1.27
2018-08-04T00:58:56.757Z,1.10
2018-08-04T00:59:29.772Z,1.20
2018-08-04T01:00:02.887Z,1.20
2018-08-04T01:00:35.925Z,1.10
2018-08-04T01:01:09.041Z,1.10
2018-08-04T01:01:42.125Z,1.00
2018-08-04T01:02:15.176Z,1.10
2018-08-04T01:02:48.237Z,1.10
2018-08-04T01:03:21.286Z,1.10
2018-08-04T01:03:54.333Z,1.30
2018-08-04T01:04:27.399Z,1.10
2018-08-04T01:05:00.474Z,1.02
2018-08-04T01:06:33.127Z,1.10
2018-08-04T01:07:06.616Z,1.07
2018-08-04T01:07:39.615Z,1.17
2018-08-04T01:08:12.692Z,1.10
2018-08-04T01:09:45.908Z,1.10
2018-08-04T01:10:18.965Z,1.15
2018-08-04T01:10:52.027Z,1.10
2018-08-04T01:11:25.067Z,1.17
2018-08-04T01:11:58.194Z,1.20
2018-08-04T01:12:31.784Z,1.20
2018-08-04T01:13:04.874Z,1.20
2018-08-04T01:13:37.890Z,1.20
2018-08-04T01:14:10.937Z,1.20
2018-08-04T01:14:44.107Z,1.10
2018-08-04T01:15:17.153Z,1.40
2018-08-04T01:15:50.215Z,1.30
2018-08-04T01:16:23.202Z,1.30
2018-08-04T01:16:56.287Z,1.20
2018-08-04T01:17:29.862Z,1.22
2018-08-04T01:18:02.841Z,1.00
2018-08-04T01:18:35.863Z,1.07
2018-08-04T01:19:08.875Z,1.25
2018-08-04T01:19:41.892Z,1.00
2018-08-04T01:20:14.919Z,1.10
2018-08-04T01:20:48.041Z,1.20
2018-08-04T01:21:21.113Z,1.10
2018-08-04T01:21:54.247Z,1.05
2018-08-04T01:22:27.258Z,1.10
2018-08-04T01:23:00.289Z,1.20
2018-08-04T01:23:33.321Z,1.10
2018-08-04T01:24:06.373Z,1.00
2018-08-04T01:24:39.395Z,1.10
2018-08-04T01:25:12.420Z,1.20
2018-08-04T01:25:45.477Z,1.00
2018-08-04T01:26:18.523Z,1.00
2018-08-04T01:26:51.564Z,1.05
2018-08-04T01:27:24.594Z,1.00
2018-08-04T01:27:57.686Z,1.10
2018-08-04T01:28:30.829Z,1.30
2018-08-04T01:29:03.936Z,1.00
2018-08-04T01:29:37.019Z,1.00
2018-08-04T01:30:10.199Z,1.00
2018-08-04T01:30:43.231Z,1.20
2018-08-04T01:31:16.359Z,1.20
2018-08-04T01:31:49.423Z,1.10
2018-08-04T01:32:22.447Z,1.10
2018-08-04T01:32:55.484Z,1.07
2018-08-04T01:33:28.517Z,1.20
2018-08-04T01:34:01.586Z,1.20
2018-08-04T01:34:34.593Z,1.10
2018-08-04T01:35:07.647Z,1.30
2018-08-04T01:35:40.658Z,1.12
2018-08-04T01:36:13.988Z,1.30
2018-08-04T01:36:47.037Z,1.25
2018-08-04T01:37:20.097Z,1.30
2018-08-04T01:37:53.179Z,1.10
2018-08-04T01:38:26.216Z,1.27
2018-08-04T01:38:59.235Z,1.30
2018-08-04T01:39:32.251Z,1.30
2018-08-04T01:40:05.791Z,1.37
2018-08-04T01:40:38.803Z,1.22
2018-08-04T01:41:11.849Z,1.10
2018-08-04T01:43:14.417Z,1.20
2018-08-04T01:43:47.486Z,1.30
2018-08-04T01:44:20.539Z,1.20
2018-08-04T01:44:53.571Z,1.22
2018-08-04T01:45:37.071Z,1.30
2018-08-04T01:46:10.069Z,1.30
2018-08-04T01:46:43.109Z,1.20
2018-08-04T01:47:16.109Z,1.37
2018-08-04T01:47:49.131Z,1.40
2018-08-04T01:48:22.185Z,1.32
2018-08-04T01:48:55.235Z,1.20
2018-08-04T01:49:28.411Z,1.30
2018-08-04T01:50:01.571Z,1.20
2018-08-04T01:50:34.579Z,1.22
2018-08-04T01:51:07.595Z,1.00
2018-08-04T01:51:40.583Z,1.07
2018-08-04T01:52:13.625Z,0.90
2018-08-04T01:52:46.635Z,1.20
2018-08-04T01:53:19.687Z,1.13
2018-08-04T01:53:52.691Z,1.20
2018-08-04T01:54:25.724Z,1.05
2018-08-04T01:54:58.771Z,1.15
2018-08-04T01:55:31.785Z,1.20
2018-08-04T01:56:04.923Z,1.17
2018-08-04T01:56:37.939Z,1.20
2018-08-04T01:57:10.977Z,1.10
2018-08-04T01:57:43.997Z,1.20
2018-08-04T01:58:17.035Z,1.10
2018-08-04T01:58:50.062Z,1.00
2018-08-04T01:59:23.084Z,1.10
2018-08-04T01:59:56.103Z,1.00
2018-08-04T02:00:29.121Z,1.10
2018-08-04T02:01:02.153Z,1.12
2018-08-04T02:01:35.179Z,1.10
2018-08-04T02:02:08.270Z,1.05
2018-08-04T02:02:41.297Z,1.10
2018-08-04T02:03:14.335Z,1.20
2018-08-04T02:03:47.380Z,1.10
2018-08-04T02:04:20.415Z,1.10
2018-08-04T02:04:53.425Z,1.10
2018-08-04T02:05:26.417Z,1.20
2018-08-04T02:05:59.454Z,1.20
2018-08-04T02:06:32.507Z,1.30
2018-08-04T02:07:05.812Z,1.30
2018-08-04T02:07:38.891Z,1.10
2018-08-04T02:08:12.041Z,1.20
2018-08-04T02:08:45.113Z,1.20
2018-08-04T02:09:18.189Z,1.20
2018-08-04T02:09:51.430Z,1.20
2018-08-04T02:10:25.409Z,1.10
2018-08-04T02:10:58.581Z,1.20
2018-08-04T02:11:31.591Z,1.22
2018-08-04T02:12:04.623Z,1.00
2018-08-04T02:12:37.673Z,1.10
2018-08-04T02:13:11.747Z,1.20
2018-08-04T02:13:44.846Z,1.10
2018-08-04T02:14:17.859Z,1.17
2018-08-04T02:14:50.869Z,1.10
2018-08-04T02:15:23.910Z,1.10
2018-08-04T02:17:26.489Z,1.00
2018-08-04T02:17:59.603Z,1.05
2018-08-04T02:18:32.661Z,0.90
2018-08-04T02:19:05.727Z,1.20
2018-08-04T02:19:38.773Z,1.30
2018-08-04T02:20:11.875Z,1.20
2018-08-04T02:20:44.921Z,1.00
2018-08-04T02:21:17.956Z,1.17
2018-08-04T02:21:51.011Z,1.10
2018-08-04T02:22:24.042Z,1.12
2018-08-04T02:22:57.109Z,1.17
2018-08-04T02:23:30.147Z,1.10
2018-08-04T02:24:03.195Z,1.10
2018-08-04T02:24:36.211Z,1.17
2018-08-04T02:25:09.227Z,1.10
2018-08-04T02:25:42.251Z,1.10
2018-08-04T02:26:15.320Z,1.07
2018-08-04T02:26:48.349Z,1.20
2018-08-04T02:27:21.365Z,1.10
2018-08-04T02:27:54.408Z,1.20
2018-08-04T02:28:27.458Z,1.10
2018-08-04T02:29:00.484Z,1.00
2018-08-04T02:29:33.510Z,1.00
2018-08-04T02:30:06.595Z,1.10
2018-08-04T02:30:39.712Z,1.10
2018-08-04T02:31:12.761Z,1.20
2018-08-04T02:31:45.834Z,1.10
2018-08-04T02:32:18.863Z,1.10
2018-08-04T02:32:51.854Z,1.10
2018-08-04T02:33:24.887Z,1.10
2018-08-04T02:33:57.913Z,0.90
2018-08-04T02:34:30.928Z,1.10
2018-08-04T02:35:03.991Z,1.00
2018-08-04T02:35:37.033Z,1.05
2018-08-04T02:36:10.109Z,1.15
2018-08-04T02:36:43.170Z,1.17
2018-08-04T02:37:16.205Z,1.00
2018-08-04T02:37:49.217Z,1.17
2018-08-04T02:38:22.261Z,1.05
2018-08-04T02:38:55.288Z,1.00
2018-08-04T02:39:28.634Z,1.10
2018-08-04T02:40:01.635Z,1.10
2018-08-04T02:40:34.703Z,1.07
2018-08-04T02:41:07.756Z,1.10
2018-08-04T02:41:40.794Z,1.05
2018-08-04T02:42:13.901Z,1.00
2018-08-04T02:42:46.994Z,1.00
2018-08-04T02:43:19.990Z,1.00
2018-08-04T02:43:53.035Z,1.12
2018-08-04T02:44:26.140Z,1.10
2018-08-04T02:44:59.170Z,1.10
2018-08-04T02:45:32.207Z,1.10
2018-08-04T02:46:05.268Z,1.10
2018-08-04T02:46:38.346Z,1.10
2018-08-04T02:47:11.422Z,1.10
2018-08-04T02:47:44.432Z,0.98
2018-08-04T02:48:17.519Z,1.10
2018-08-04T02:48:51.144Z,1.10
2018-08-04T02:49:24.387Z,0.90
2018-08-04T02:49:57.446Z,1.07
2018-08-04T02:50:30.510Z,1.00
2018-08-04T02:51:03.587Z,1.20
2018-08-04T02:51:36.643Z,1.00
2018-08-04T02:52:09.663Z,1.30
2018-08-04T02:52:42.689Z,1.20
2018-08-04T02:53:15.756Z,1.20
2018-08-04T02:53:48.828Z,1.10
2018-08-04T02:54:21.864Z,1.00
2018-08-04T02:54:54.879Z,1.10
2018-08-04T02:55:27.900Z,1.17
2018-08-04T02:56:00.942Z,1.00
2018-08-04T02:56:33.978Z,1.27
2018-08-04T02:57:07.023Z,1.20
2018-08-04T02:57:40.057Z,1.22
2018-08-04T02:58:13.069Z,1.20
2018-08-04T02:58:46.109Z,1.12
2018-08-04T02:59:19.209Z,1.10
2018-08-04T02:59:52.419Z,1.10
2018-08-04T03:00:25.492Z,1.30
2018-08-04T03:00:58.575Z,1.20
2018-08-04T03:01:31.625Z,1.30
2018-08-04T03:02:04.762Z,1.20
2018-08-04T03:02:37.786Z,1.10
2018-08-04T03:03:10.813Z,1.10
2018-08-04T03:03:43.869Z,1.10
2018-08-04T03:04:16.883Z,1.20
2018-08-04T03:04:49.902Z,1.10
2018-08-04T03:05:23.003Z,1.30
2018-08-04T03:05:56.047Z,1.17
2018-08-04T03:06:29.082Z,1.10
2018-08-04T03:08:31.719Z,1.20
2018-08-04T03:09:08.812Z,0.95
2018-08-04T03:09:41.816Z,1.20
2018-08-04T03:10:14.836Z,1.12
2018-08-04T03:10:47.930Z,1.20
2018-08-04T03:11:20.995Z,1.10
2018-08-04T03:11:54.131Z,1.20
2018-08-04T03:12:27.172Z,1.10
2018-08-04T03:13:00.164Z,1.20
2018-08-04T03:13:33.158Z,1.05
2018-08-04T03:14:06.250Z,1.20
2018-08-04T03:14:39.278Z,1.20
2018-08-04T03:15:12.287Z,1.30
2018-08-04T03:15:45.286Z,1.37
2018-08-04T03:16:18.310Z,1.55
2018-08-04T03:16:51.364Z,1.40
2018-08-04T03:17:24.444Z,1.50
2018-08-04T03:17:57.459Z,1.30
2018-08-04T03:18:30.500Z,1.10
2018-08-04T03:19:03.584Z,1.25
2018-08-04T03:19:36.579Z,1.20
2018-08-04T03:20:09.731Z,1.20
2018-08-04T03:20:42.814Z,1.25
2018-08-04T03:21:15.876Z,1.20
2018-08-04T03:21:49.227Z,1.20
2018-08-04T03:22:22.263Z,1.10
2018-08-04T03:22:55.318Z,1.10
2018-08-04T03:23:28.375Z,1.20
2018-08-04T03:24:01.479Z,1.20
2018-08-04T03:24:34.526Z,1.15
2018-08-04T03:25:07.640Z,1.30
2018-08-04T03:25:40.787Z,1.30
2018-08-04T03:26:13.808Z,1.00
2018-08-04T03:26:46.882Z,1.10
2018-08-04T03:27:20.000Z,1.02
2018-08-04T03:27:53.072Z,1.10
2018-08-04T03:28:26.141Z,1.30
2018-08-04T03:28:59.167Z,1.22
2018-08-04T03:29:32.180Z,1.22
2018-08-04T03:30:05.323Z,1.20
2018-08-04T03:30:39.082Z,1.00
2018-08-04T03:31:12.132Z,1.20
2018-08-04T03:31:45.135Z,1.00
2018-08-04T03:32:18.235Z,1.10
2018-08-04T03:32:51.244Z,1.20
2018-08-04T03:33:24.262Z,1.00
2018-08-04T03:33:57.256Z,1.05
2018-08-04T03:34:30.293Z,1.00
2018-08-04T03:35:03.640Z,1.25
2018-08-04T03:35:36.630Z,1.17
2018-08-04T03:36:09.644Z,1.20
2018-08-04T03:36:42.690Z,1.10
2018-08-04T03:37:15.730Z,1.02
2018-08-04T03:37:48.771Z,1.00
2018-08-04T03:38:21.786Z,1.10
2018-08-04T03:38:54.789Z,1.10
2018-08-04T03:39:27.790Z,1.00
2018-08-04T03:40:00.991Z,1.15
2018-08-04T03:40:34.002Z,1.20
2018-08-04T03:41:07.158Z,1.20
2018-08-04T03:41:41.112Z,1.20
2018-08-04T03:42:14.114Z,1.10
2018-08-04T03:42:47.122Z,1.30
2018-08-04T03:43:20.148Z,1.30
2018-08-04T03:43:53.166Z,1.10
2018-08-04T03:44:26.206Z,1.22
2018-08-04T03:44:59.216Z,1.10
2018-08-04T03:45:32.307Z,1.10
2018-08-04T03:46:05.578Z,1.20
2018-08-04T03:46:38.574Z,1.07
2018-08-04T03:47:11.596Z,1.00
2018-08-04T03:47:44.650Z,1.15
2018-08-04T03:48:17.649Z,1.20
2018-08-04T03:48:50.631Z,1.30
2018-08-04T03:49:23.678Z,1.10
2018-08-04T03:49:56.698Z,1.10
2018-08-04T03:50:29.721Z,1.20
2018-08-04T03:51:02.862Z,1.10
2018-08-04T03:51:35.890Z,1.10
2018-08-04T03:52:08.941Z,1.10
2018-08-04T03:52:42.016Z,1.10
2018-08-04T03:53:15.065Z,1.10
2018-08-04T03:53:48.154Z,1.10
2018-08-04T03:54:21.218Z,1.12
2018-08-04T03:54:54.907Z,1.20
2018-08-04T03:55:27.926Z,1.10
2018-08-04T03:56:00.942Z,1.10
2018-08-04T03:56:33.986Z,1.12
2018-08-04T03:57:07.004Z,1.17
2018-08-04T03:57:40.015Z,1.20
2018-08-04T03:58:13.052Z,1.20
2018-08-04T03:58:46.089Z,1.10
2018-08-04T03:59:19.110Z,1.10
2018-08-04T03:59:52.138Z,1.10
2018-08-04T04:00:25.159Z,1.17
2018-08-04T04:00:59.128Z,1.20
2018-08-04T04:01:32.172Z,1.20
2018-08-04T04:02:05.234Z,1.15
2018-08-04T04:02:38.294Z,1.20
2018-08-04T04:03:11.310Z,1.00
2018-08-04T04:03:44.326Z,1.10
2018-08-04T04:04:17.354Z,1.17
2018-08-04T04:04:50.362Z,1.20
2018-08-04T04:05:23.390Z,1.30
2018-08-04T04:05:56.458Z,1.00
2018-08-04T04:06:29.526Z,1.20
2018-08-04T04:07:02.559Z,1.20
2018-08-04T04:07:35.630Z,1.00
2018-08-04T04:08:08.670Z,1.20
2018-08-04T04:08:41.674Z,1.10
2018-08-04T04:09:14.754Z,1.10
2018-08-04T04:09:47.772Z,1.20
2018-08-04T04:10:20.836Z,1.10
2018-08-04T04:10:53.826Z,1.10
2018-08-04T04:11:26.850Z,1.10
2018-08-04T04:11:59.938Z,1.00
2018-08-04T04:12:32.983Z,1.15
2018-08-04T04:13:05.966Z,1.00
2018-08-04T04:13:38.991Z,1.10
2018-08-04T04:14:12.032Z,1.20
2018-08-04T04:14:45.095Z,1.00
2018-08-04T04:15:18.232Z,1.00
2018-08-04T04:15:51.332Z,1.00
2018-08-04T04:16:24.407Z,1.10
2018-08-04T04:16:57.454Z,1.15
2018-08-04T04:17:46.488Z,1.10
2018-08-04T04:18:19.528Z,1.10
2018-08-04T04:18:52.596Z,1.10
2018-08-04T04:19:25.673Z,1.50
2018-08-04T04:19:58.720Z,1.10
2018-08-04T04:20:31.736Z,1.10
2018-08-04T04:21:04.770Z,1.30
2018-08-04T04:21:37.786Z,1.10
2018-08-04T04:22:10.840Z,1.20
2018-08-04T04:22:43.870Z,1.00
2018-08-04T04:23:16.935Z,1.07
2018-08-04T04:23:49.940Z,1.10
2018-08-04T04:24:23.004Z,1.00
2018-08-04T04:24:56.134Z,1.10
2018-08-04T04:25:29.170Z,1.30
2018-08-04T04:26:02.230Z,1.30
2018-08-04T04:26:35.257Z,1.20
2018-08-04T04:27:08.247Z,1.10
2018-08-04T04:27:41.721Z,1.00
2018-08-04T04:29:04.047Z,1.30
2018-08-04T04:29:37.083Z,1.17
2018-08-04T04:30:10.323Z,1.20
2018-08-04T04:30:43.367Z,1.27
2018-08-04T04:31:16.429Z,1.30
2018-08-04T04:31:49.499Z,1.20
2018-08-04T04:32:22.598Z,1.25
2018-08-04T04:32:55.652Z,1.20
2018-08-04T04:33:28.687Z,1.20
2018-08-04T04:34:01.726Z,1.20
2018-08-04T04:34:34.811Z,1.20
2018-08-04T04:35:07.820Z,1.12
2018-08-04T04:35:40.860Z,1.30
2018-08-04T04:36:13.885Z,1.20
2018-08-04T04:36:46.933Z,1.20
2018-08-04T04:37:19.969Z,1.00
2018-08-04T04:37:53.014Z,1.20
2018-08-04T04:38:26.048Z,1.30
2018-08-04T04:38:59.083Z,1.15
2018-08-04T04:39:32.106Z,1.15
2018-08-04T04:40:06.162Z,1.30
2018-08-04T04:40:39.138Z,1.20
2018-08-04T04:41:12.159Z,1.20
2018-08-04T04:41:45.231Z,1.20
2018-08-04T04:42:18.300Z,1.25
2018-08-04T04:42:51.320Z,1.20
2018-08-04T04:43:24.425Z,1.15
2018-08-04T04:43:57.406Z,1.10
2018-08-04T04:44:30.443Z,1.00
2018-08-04T04:45:03.757Z,1.12
2018-08-04T04:45:36.804Z,1.10
2018-08-04T04:46:09.855Z,1.10
2018-08-04T04:46:42.868Z,1.10
2018-08-04T04:47:15.886Z,1.10
2018-08-04T04:47:48.908Z,1.20
2018-08-04T04:48:21.971Z,1.30
2018-08-04T04:48:54.921Z,1.00
2018-08-04T04:49:27.946Z,1.20
2018-08-04T04:50:01.078Z,1.15
2018-08-04T04:50:34.135Z,1.10
2018-08-04T04:51:07.177Z,1.10
2018-08-04T04:51:41.293Z,1.20
2018-08-04T04:52:14.334Z,1.10
2018-08-04T04:52:47.358Z,1.20
2018-08-04T04:53:21.305Z,1.05
2018-08-04T04:53:54.330Z,1.12
2018-08-04T04:54:27.334Z,1.02
2018-08-04T04:55:00.357Z,1.17
2018-08-04T04:55:33.402Z,1.10
2018-08-04T04:56:06.439Z,1.20
2018-08-04T04:56:39.502Z,1.15
2018-08-04T04:57:12.498Z,1.20
2018-08-04T04:57:45.499Z,1.10
2018-08-04T04:58:18.564Z,1.27
2018-08-04T04:58:51.537Z,1.20
2018-08-04T04:59:24.618Z,1.20
2018-08-04T04:59:57.613Z,1.20
2018-08-04T05:00:30.609Z,1.27
2018-08-04T05:01:03.641Z,1.15
2018-08-04T05:01:36.651Z,1.20
2018-08-04T05:02:09.677Z,1.10
2018-08-04T05:02:43.001Z,1.15
2018-08-04T05:03:16.105Z,1.17
2018-08-04T05:03:49.102Z,1.10
2018-08-04T05:04:22.146Z,1.25
2018-08-04T05:04:55.161Z,1.10
2018-08-04T05:05:28.141Z,1.10
2018-08-04T05:06:01.441Z,1.20
2018-08-04T05:06:34.492Z,1.15
2018-08-04T05:07:07.517Z,1.17
2018-08-04T05:07:40.577Z,1.10
2018-08-04T05:08:13.571Z,1.20
2018-08-04T05:08:46.691Z,1.30
2018-08-04T05:09:19.654Z,1.10
2018-08-04T05:09:52.798Z,1.10
2018-08-04T05:10:25.850Z,1.10
2018-08-04T05:10:59.017Z,1.12
2018-08-04T05:11:32.117Z,1.15
2018-08-04T05:12:05.219Z,1.10
2018-08-04T05:12:38.255Z,1.00
2018-08-04T05:13:11.330Z,1.22
2018-08-04T05:13:44.367Z,1.20
2018-08-04T05:14:17.378Z,1.15
2018-08-04T05:14:50.409Z,1.30
2018-08-04T05:15:23.418Z,1.17
2018-08-04T05:15:56.482Z,1.20
2018-08-04T05:17:59.059Z,1.27
2018-08-04T05:18:32.091Z,1.15
2018-08-04T05:19:05.176Z,1.30
2018-08-04T05:19:38.206Z,1.20
2018-08-04T05:20:11.237Z,1.12
2018-08-04T05:20:44.323Z,1.30
2018-08-04T05:21:17.319Z,1.30
2018-08-04T05:21:50.307Z,1.02
2018-08-04T05:22:23.333Z,1.17
2018-08-04T05:22:56.373Z,1.10
2018-08-04T05:23:29.417Z,1.10
2018-08-04T05:24:02.458Z,1.30
2018-08-04T05:24:35.490Z,1.12
2018-08-04T05:25:08.509Z,1.10
2018-08-04T05:25:41.599Z,1.02
2018-08-04T05:26:14.590Z,1.00
2018-08-04T05:26:47.615Z,1.10
2018-08-04T05:27:20.645Z,1.20
2018-08-04T05:27:53.667Z,1.30
2018-08-04T05:28:26.680Z,1.17
2018-08-04T05:28:59.780Z,1.35
2018-08-04T05:29:32.765Z,1.30
2018-08-04T05:30:06.308Z,1.30
2018-08-04T05:30:39.441Z,1.32
2018-08-04T05:31:12.556Z,1.35
2018-08-04T05:31:45.593Z,1.20
2018-08-04T05:32:18.660Z,1.40
2018-08-04T05:32:51.695Z,1.22
2018-08-04T05:33:24.727Z,1.30
2018-08-04T05:33:57.733Z,1.20
2018-08-04T05:34:30.764Z,1.20
2018-08-04T05:35:03.911Z,1.30
2018-08-04T05:35:36.923Z,1.00
2018-08-04T05:36:09.939Z,1.10
2018-08-04T05:36:42.932Z,1.20
2018-08-04T05:37:16.024Z,1.30
2018-08-04T05:37:49.072Z,1.20
2018-08-04T05:38:22.107Z,1.30
2018-08-04T05:38:55.151Z,1.30
2018-08-04T05:39:28.187Z,1.45
2018-08-04T05:40:01.205Z,1.40
2018-08-04T05:40:34.259Z,1.20
2018-08-04T05:41:07.375Z,1.40
2018-08-04T05:41:40.523Z,1.35
2018-08-04T05:42:13.537Z,1.30
2018-08-04T05:42:46.560Z,1.40
2018-08-04T05:43:19.580Z,1.20
2018-08-04T05:43:52.606Z,1.22
2018-08-04T05:44:25.651Z,1.20
2018-08-04T05:44:58.653Z,1.42
2018-08-04T05:45:31.631Z,1.22
2018-08-04T05:46:04.707Z,1.30
2018-08-04T05:46:37.711Z,1.30
2018-08-04T05:47:10.738Z,1.10
2018-08-04T05:47:43.744Z,1.20
2018-08-04T05:48:16.767Z,1.22
2018-08-04T05:48:50.295Z,1.37
2018-08-04T05:49:23.351Z,1.40
2018-08-04T05:49:56.419Z,1.30
2018-08-04T05:50:29.415Z,1.30
2018-08-04T05:51:02.461Z,1.52
2018-08-04T05:51:35.582Z,1.40
2018-08-04T05:52:08.592Z,1.40
2018-08-04T05:52:41.677Z,1.10
2018-08-04T05:53:14.746Z,1.40
2018-08-04T05:53:47.965Z,1.30
2018-08-04T05:54:21.053Z,1.45
2018-08-04T05:54:54.261Z,1.30
2018-08-04T05:55:27.313Z,1.40
2018-08-04T05:56:00.398Z,1.20
2018-08-04T05:56:33.492Z,1.20
2018-08-04T05:57:06.536Z,1.20
2018-08-04T05:57:39.597Z,1.37
2018-08-04T05:58:12.727Z,1.40
2018-08-04T05:58:45.764Z,1.40
2018-08-04T05:59:18.897Z,1.20
2018-08-04T05:59:51.915Z,1.40
2018-08-04T06:00:24.988Z,1.30
2018-08-04T06:00:58.080Z,1.40
2018-08-04T06:01:31.083Z,1.17
2018-08-04T06:02:04.191Z,1.10
2018-08-04T06:02:37.266Z,1.10
2018-08-04T06:03:10.354Z,1.20
2018-08-04T06:03:43.365Z,1.30
2018-08-04T06:04:16.371Z,1.40
2018-08-04T06:04:49.458Z,1.40
2018-08-04T06:05:22.523Z,1.30
2018-08-04T06:05:55.877Z,1.20
2018-08-04T06:06:28.891Z,1.50
2018-08-04T06:07:01.969Z,1.40
2018-08-04T06:07:35.051Z,1.32
2018-08-04T06:08:08.117Z,1.50
2018-08-04T06:08:41.144Z,1.40
2018-08-04T06:09:14.139Z,1.30
2018-08-04T06:09:47.135Z,1.40
2018-08-04T06:10:20.149Z,1.32
2018-08-04T06:10:53.183Z,1.30
2018-08-04T06:11:26.227Z,1.32
2018-08-04T06:13:01.631Z,1.20
2018-08-04T06:13:34.771Z,1.30
2018-08-04T06:14:07.869Z,1.22
2018-08-04T06:14:40.893Z,1.20
2018-08-04T06:15:14.916Z,1.20
2018-08-04T06:15:47.937Z,1.30
2018-08-04T06:16:21.003Z,1.40
2018-08-04T06:16:54.033Z,1.40
2018-08-04T06:17:27.067Z,1.40
2018-08-04T06:18:00.185Z,1.50
2018-08-04T06:18:33.242Z,1.50
2018-08-04T06:19:06.270Z,1.50
2018-08-04T06:19:39.387Z,1.40
2018-08-04T06:20:12.478Z,1.50
2018-08-04T06:20:45.573Z,1.40
2018-08-04T06:21:18.623Z,1.40
2018-08-04T06:21:51.630Z,1.40
2018-08-04T06:22:24.723Z,1.50
2018-08-04T06:22:57.733Z,1.35
2018-08-04T06:23:30.790Z,1.30
2018-08-04T06:24:03.871Z,1.40
2018-08-04T06:24:36.932Z,1.37
2018-08-04T06:25:09.985Z,1.30
2018-08-04T06:25:43.049Z,1.30
2018-08-04T06:26:16.161Z,1.30
2018-08-04T06:26:49.209Z,1.32
2018-08-04T06:27:22.279Z,1.40
2018-08-04T06:27:55.365Z,1.40
2018-08-04T06:28:28.441Z,1.40
2018-08-04T06:29:01.479Z,1.50
2018-08-04T06:29:34.536Z,1.47
2018-08-04T06:30:09.511Z,1.40
2018-08-04T06:30:42.581Z,1.50
2018-08-04T06:31:15.633Z,1.50
2018-08-04T06:31:48.703Z,1.47
2018-08-04T06:32:21.775Z,1.42
2018-08-04T06:32:54.795Z,1.50
2018-08-04T06:33:27.879Z,1.50
2018-08-04T06:34:01.028Z,1.40
2018-08-04T06:34:34.111Z,1.40
2018-08-04T06:35:07.175Z,1.35
2018-08-04T06:35:40.248Z,1.42
2018-08-04T06:36:13.312Z,1.60
2018-08-04T06:36:46.355Z,1.50
2018-08-04T06:37:19.408Z,1.50
2018-08-04T06:37:52.466Z,1.40
2018-08-04T06:38:25.510Z,1.40
2018-08-04T06:38:58.533Z,1.50
2018-08-04T06:39:31.530Z,1.40
2018-08-04T06:40:05.067Z,1.47
2018-08-04T06:40:38.094Z,1.47
2018-08-04T06:41:11.203Z,1.40
2018-08-04T06:41:44.314Z,1.40
2018-08-04T06:42:17.351Z,1.60
2018-08-04T06:42:50.376Z,1.60
2018-08-04T06:43:23.447Z,1.50
2018-08-04T06:43:56.569Z,1.40
2018-08-04T06:44:29.625Z,1.42
2018-08-04T06:45:02.763Z,1.60
2018-08-04T06:45:35.787Z,1.50
2018-08-04T06:46:08.842Z,1.60
2018-08-04T06:46:41.937Z,1.40
2018-08-04T06:47:14.975Z,1.40
2018-08-04T06:47:48.008Z,1.50
2018-08-04T06:48:21.004Z,1.57
2018-08-04T06:48:54.310Z,1.50
2018-08-04T06:49:27.814Z,1.50
2018-08-04T06:50:00.853Z,1.40
2018-08-04T06:50:33.884Z,1.50
2018-08-04T06:51:06.959Z,1.40
2018-08-04T06:51:40.030Z,1.50
2018-08-04T06:52:13.093Z,1.50
2018-08-04T06:52:46.146Z,1.40
2018-08-04T06:53:19.148Z,1.50
2018-08-04T06:53:52.194Z,1.70
2018-08-04T06:54:25.192Z,1.70
2018-08-04T06:54:58.244Z,1.60
2018-08-04T06:55:31.308Z,1.50
2018-08-04T06:56:04.408Z,1.50
2018-08-04T06:56:37.498Z,1.60
2018-08-04T06:57:10.599Z,1.50
2018-08-04T06:57:43.667Z,1.50
2018-08-04T06:58:16.787Z,1.50
2018-08-04T06:58:49.829Z,1.40
2018-08-04T06:59:22.885Z,1.50
2018-08-04T06:59:55.924Z,1.42
2018-08-04T07:00:28.950Z,1.40
2018-08-04T07:01:02.049Z,1.40
2018-08-04T07:01:35.108Z,1.40
2018-08-04T07:02:08.265Z,1.40
2018-08-04T07:02:41.328Z,1.50
2018-08-04T07:03:14.379Z,1.50
2018-08-04T07:03:47.406Z,1.50
2018-08-04T07:04:20.526Z,1.70
2018-08-04T07:04:53.540Z,1.57
2018-08-04T07:05:26.578Z,1.60
2018-08-04T07:05:59.598Z,1.60
2018-08-04T07:06:32.640Z,1.60
2018-08-04T07:07:06.382Z,1.80
2018-08-04T07:07:39.430Z,1.62
2018-08-04T07:08:12.497Z,1.60
2018-08-04T07:08:45.557Z,1.70
2018-08-04T07:09:18.562Z,1.60
2018-08-04T07:09:51.727Z,1.70
2018-08-04T07:10:24.803Z,1.60
2018-08-04T07:10:57.880Z,1.60
2018-08-04T07:11:30.898Z,1.70
2018-08-04T07:12:03.994Z,1.60
2018-08-04T07:12:37.006Z,1.60
2018-08-04T07:13:10.096Z,1.50
2018-08-04T07:13:43.255Z,1.70
2018-08-04T07:14:16.338Z,1.60
2018-08-04T07:14:49.379Z,1.60
2018-08-04T07:15:22.477Z,1.60
2018-08-04T07:15:56.246Z,1.90
2018-08-04T07:16:29.286Z,1.70
2018-08-04T07:17:02.390Z,1.72
2018-08-04T07:17:35.479Z,1.80
2018-08-04T07:18:08.496Z,1.70
2018-08-04T07:18:41.549Z,1.60
2018-08-04T07:19:14.606Z,1.75
2018-08-04T07:19:47.644Z,1.70
2018-08-04T07:20:20.711Z,1.77
2018-08-04T07:20:53.782Z,1.72
2018-08-04T07:21:26.860Z,1.60
2018-08-04T07:22:00.180Z,1.75
2018-08-04T07:22:33.262Z,1.60
2018-08-04T07:23:06.387Z,1.70
2018-08-04T07:23:39.429Z,1.65
2018-08-04T07:24:12.518Z,1.60
2018-08-04T07:24:45.563Z,1.60
2018-08-04T07:25:18.632Z,1.70
2018-08-04T07:25:51.697Z,1.70
2018-08-04T07:26:24.716Z,1.60
2018-08-04T07:26:58.017Z,1.60
2018-08-04T07:27:31.059Z,1.67
2018-08-04T07:28:04.199Z,1.70
2018-08-04T07:28:37.232Z,1.75
2018-08-04T07:29:10.322Z,1.67
2018-08-04T07:29:43.382Z,1.85
2018-08-04T07:30:16.454Z,1.80
2018-08-04T07:30:49.664Z,1.80